Time;durP1;ratioP1;P1;durP2;ratioP2;P2;SDS_P1;SDS_P2;PMS_P1;PMS_P2;Temp;Humidity;BMP_temperature;BMP_pressure;BME280_temperature;BME280_humidity;BME280_pressure;Samples;Min_cycle;Max_cycle;Signal;HPM_P1;HPM_P2
2020/12/29 00:00:50;;;;;;;24.27;12.45;;;4.50;99.90;;;;;;5063941;28;20112;-77
2020/12/29 00:03:19;;;;;;;28.20;13.02;;;4.50;99.90;;;;;;5057562;28;20474;-77
2020/12/29 00:05:46;;;;;;;32.50;14.48;;;4.50;99.90;;;;;;5056902;28;20037;-77
2020/12/29 00:08:12;;;;;;;30.80;13.27;;;4.50;99.90;;;;;;5059229;28;20033;-77
2020/12/29 00:10:38;;;;;;;25.73;13.65;;;4.50;99.90;;;;;;5061332;28;20032;-77
2020/12/29 00:13:05;;;;;;;28.70;13.18;;;4.50;99.90;;;;;;5051628;28;20037;-77
2020/12/29 00:15:31;;;;;;;28.23;13.98;;;4.60;99.90;;;;;;5057189;28;20035;-77
2020/12/29 00:17:56;;;;;;;25.50;13.20;;;4.50;99.90;;;;;;5060781;28;20028;-77
2020/12/29 00:20:22;;;;;;;25.33;14.48;;;4.50;99.90;;;;;;5057607;28;20052;-77
2020/12/29 00:22:47;;;;;;;30.02;13.38;;;4.50;99.90;;;;;;5065293;28;20471;-77
2020/12/29 00:25:18;;;;;;;30.30;14.18;;;4.50;99.90;;;;;;5056469;28;20039;-77
2020/12/29 00:27:45;;;;;;;26.05;13.05;;;4.30;99.90;;;;;;5062147;28;20036;-77
2020/12/29 00:30:11;;;;;;;25.70;13.30;;;4.30;99.90;;;;;;5056238;28;20105;-78
2020/12/29 00:32:36;;;;;;;30.35;13.57;;;4.40;99.90;;;;;;5054839;28;20033;-77
2020/12/29 00:35:02;;;;;;;29.10;14.20;;;4.40;99.90;;;;;;5061627;28;20013;-77
2020/12/29 00:37:27;;;;;;;26.58;13.55;;;4.40;99.90;;;;;;5065968;28;20025;-77
2020/12/29 00:39:52;;;;;;;27.48;14.52;;;4.40;99.90;;;;;;5064364;28;20035;-77
2020/12/29 00:42:18;;;;;;;25.88;13.95;;;4.40;99.90;;;;;;5065499;28;20064;-77
2020/12/29 00:44:43;;;;;;;28.30;14.15;;;4.40;99.90;;;;;;5063242;28;20029;-78
2020/12/29 00:47:09;;;;;;;24.80;13.65;;;4.30;99.90;;;;;;5063648;28;20051;-77
2020/12/29 00:49:38;;;;;;;27.02;13.93;;;4.30;99.90;;;;;;5053274;28;20033;-77
2020/12/29 00:52:04;;;;;;;27.60;14.48;;;4.30;99.90;;;;;;5066602;28;20429;-77
2020/12/29 00:54:30;;;;;;;26.48;14.43;;;4.30;99.90;;;;;;5058120;28;20100;-77
2020/12/29 00:56:55;;;;;;;28.95;14.80;;;4.30;99.90;;;;;;5064853;28;20375;-77
2020/12/29 00:59:21;;;;;;;28.52;13.52;;;4.30;99.90;;;;;;5063875;28;20039;-77
2020/12/29 01:01:56;;;;;;;26.10;13.98;;;4.40;99.90;;;;;;5065662;28;20064;-77
2020/12/29 01:04:24;;;;;;;25.90;14.85;;;4.40;99.90;;;;;;5061246;28;20563;-77
2020/12/29 01:06:49;;;;;;;24.05;14.05;;;4.40;99.90;;;;;;5058903;28;20116;-77
2020/12/29 01:09:15;;;;;;;28.08;14.38;;;4.40;99.90;;;;;;5057231;28;20128;-77
2020/12/29 01:11:41;;;;;;;31.83;14.68;;;4.30;99.90;;;;;;5059056;28;20044;-77
2020/12/29 01:14:07;;;;;;;27.95;14.20;;;4.20;99.90;;;;;;5067959;28;20031;-77
2020/12/29 01:16:32;;;;;;;28.35;14.60;;;4.20;99.90;;;;;;5064469;28;20028;-77
2020/12/29 01:18:58;;;;;;;25.63;14.00;;;4.30;99.90;;;;;;5067043;28;20029;-77
2020/12/29 01:21:23;;;;;;;30.20;14.77;;;4.20;99.90;;;;;;5060569;28;20046;-77
2020/12/29 01:23:49;;;;;;;27.50;14.02;;;4.20;99.90;;;;;;5050485;28;20033;-77
2020/12/29 01:26:22;;;;;;;32.17;14.65;;;4.20;99.90;;;;;;5062665;28;20486;-77
2020/12/29 01:28:48;;;;;;;25.20;14.20;;;4.20;99.90;;;;;;5057447;28;20025;-77
2020/12/29 01:31:13;;;;;;;30.25;15.20;;;4.30;99.90;;;;;;5067064;28;20036;-77
2020/12/29 01:33:38;;;;;;;31.65;14.70;;;4.30;99.90;;;;;;5064386;28;20037;-77
2020/12/29 01:36:04;;;;;;;26.58;13.90;;;4.30;99.90;;;;;;5060498;28;20120;-77
2020/12/29 01:38:29;;;;;;;29.50;14.77;;;4.40;99.90;;;;;;5055599;28;20025;-77
2020/12/29 01:40:58;;;;;;;26.52;14.02;;;4.40;99.90;;;;;;5057573;28;20024;-77
2020/12/29 01:43:28;;;;;;;31.80;14.20;;;4.40;99.90;;;;;;5057194;28;20090;-77
2020/12/29 01:45:53;;;;;;;29.95;15.43;;;4.30;99.90;;;;;;5056498;28;20391;-77
2020/12/29 01:48:18;;;;;;;27.40;14.80;;;4.30;99.90;;;;;;5053677;28;20036;-77
2020/12/29 01:50:44;;;;;;;30.45;15.63;;;4.30;99.90;;;;;;5052107;28;20697;-77
2020/12/29 01:53:09;;;;;;;31.33;15.52;;;4.40;99.90;;;;;;5054623;28;20067;-77
2020/12/29 01:55:35;;;;;;;28.58;13.90;;;4.40;99.90;;;;;;5050842;28;20409;-77
2020/12/29 01:58:00;;;;;;;32.88;16.00;;;4.40;99.90;;;;;;5057741;28;20054;-77
2020/12/29 02:00:27;;;;;;;29.73;15.00;;;4.40;99.90;;;;;;5064404;28;20501;-77
2020/12/29 02:02:52;;;;;;;31.70;14.98;;;4.40;99.90;;;;;;5052645;28;20059;-77
2020/12/29 02:05:19;;;;;;;31.50;15.02;;;4.30;99.90;;;;;;5052557;28;20538;-77
2020/12/29 02:07:48;;;;;;;28.73;14.93;;;4.30;99.90;;;;;;5056970;28;20482;-77
2020/12/29 02:10:14;;;;;;;27.77;14.65;;;4.30;99.90;;;;;;5052884;28;20036;-77
2020/12/29 02:12:39;;;;;;;29.63;15.30;;;4.30;99.90;;;;;;5066485;28;20046;-77
2020/12/29 02:15:07;;;;;;;27.20;14.43;;;4.30;99.90;;;;;;5063165;28;20646;-77
2020/12/29 02:17:33;;;;;;;27.60;14.88;;;4.20;99.90;;;;;;5055868;28;20020;-77
2020/12/29 02:19:59;;;;;;;30.90;14.77;;;4.20;99.90;;;;;;5060294;28;20051;-76
2020/12/29 02:22:27;;;;;;;25.13;14.35;;;4.30;99.90;;;;;;5055315;28;20072;-77
2020/12/29 02:24:55;;;;;;;25.98;13.90;;;4.30;99.90;;;;;;5060804;28;20685;-77
2020/12/29 02:27:23;;;;;;;29.70;14.90;;;4.30;99.90;;;;;;5063886;28;20097;-77
2020/12/29 02:29:49;;;;;;;27.25;14.23;;;4.40;99.90;;;;;;5062643;28;20059;-77
2020/12/29 02:32:15;;;;;;;28.10;15.35;;;4.40;99.90;;;;;;5060377;28;20471;-77
2020/12/29 02:34:41;;;;;;;25.55;14.25;;;4.40;99.90;;;;;;5059023;28;20475;-77
2020/12/29 02:37:08;;;;;;;29.02;15.15;;;4.40;99.90;;;;;;5061906;28;20024;-77
2020/12/29 02:39:35;;;;;;;27.50;15.52;;;4.40;99.90;;;;;;5055261;28;20034;-77
2020/12/29 02:42:01;;;;;;;29.63;15.02;;;4.40;99.90;;;;;;5064004;28;20037;-77
2020/12/29 02:44:27;;;;;;;25.90;14.77;;;4.40;99.90;;;;;;5060057;28;20017;-77
2020/12/29 02:46:52;;;;;;;28.92;15.25;;;4.40;99.90;;;;;;5062591;28;20086;-77
2020/12/29 02:49:18;;;;;;;31.63;15.23;;;4.40;99.90;;;;;;5058798;28;20055;-76
2020/12/29 02:51:44;;;;;;;28.33;14.82;;;4.40;99.90;;;;;;5061687;28;20036;-77
2020/12/29 02:54:13;;;;;;;24.33;13.77;;;4.40;99.90;;;;;;5062209;28;20391;-77
2020/12/29 02:56:43;;;;;;;27.08;14.70;;;4.50;99.90;;;;;;5062001;28;20036;-77
2020/12/29 02:59:09;;;;;;;29.42;14.93;;;4.40;99.90;;;;;;5065203;28;20040;-77
2020/12/29 03:01:35;;;;;;;28.73;15.70;;;4.40;99.90;;;;;;5061288;28;20103;-77
2020/12/29 03:04:01;;;;;;;30.13;15.38;;;4.40;99.90;;;;;;5061344;28;20455;-77
2020/12/29 03:06:26;;;;;;;26.45;14.32;;;4.40;99.90;;;;;;5065991;28;20035;-77
2020/12/29 03:08:52;;;;;;;28.02;15.07;;;4.30;99.90;;;;;;5063896;28;20091;-77
2020/12/29 03:11:25;;;;;;;29.33;14.43;;;4.30;99.90;;;;;;5056728;28;20361;-77
2020/12/29 03:13:51;;;;;;;26.45;14.00;;;4.20;99.90;;;;;;5056172;28;20025;-77
2020/12/29 03:16:16;;;;;;;27.83;14.82;;;3.90;99.90;;;;;;5048670;28;20055;-77
2020/12/29 03:18:42;;;;;;;31.50;15.40;;;3.90;99.90;;;;;;5055667;28;20048;-77
2020/12/29 03:21:07;;;;;;;30.42;15.10;;;3.80;99.90;;;;;;5056243;28;20044;-77
2020/12/29 03:23:33;;;;;;;27.23;14.30;;;3.80;99.90;;;;;;5061466;28;20029;-77
2020/12/29 03:25:58;;;;;;;30.58;15.30;;;3.80;99.90;;;;;;5062892;28;20092;-77
2020/12/29 03:28:24;;;;;;;29.40;14.70;;;3.90;99.90;;;;;;5055047;28;20028;-77
2020/12/29 03:30:49;;;;;;;31.25;15.52;;;3.80;99.90;;;;;;5056228;28;20016;-76
2020/12/29 03:33:15;;;;;;;28.95;14.05;;;3.90;99.90;;;;;;5056968;28;20064;-76
2020/12/29 03:35:40;;;;;;;27.92;14.30;;;3.90;99.90;;;;;;5055441;28;20364;-77
2020/12/29 03:38:06;;;;;;;27.08;14.65;;;3.90;99.90;;;;;;5061781;28;20025;-77
2020/12/29 03:40:31;;;;;;;25.92;14.77;;;4.00;99.90;;;;;;5066017;28;20036;-76
2020/12/29 03:42:57;;;;;;;31.73;14.77;;;4.10;99.90;;;;;;5057054;28;20051;-77
2020/12/29 03:45:22;;;;;;;28.25;14.32;;;4.10;99.90;;;;;;5067334;28;20028;-77
2020/12/29 03:47:48;;;;;;;28.60;13.82;;;4.10;99.90;;;;;;5054443;28;20105;-77
2020/12/29 03:50:13;;;;;;;25.45;13.57;;;4.20;99.90;;;;;;5060505;28;20040;-77
2020/12/29 03:52:38;;;;;;;24.70;12.80;;;4.20;99.90;;;;;;5067370;28;20037;-77
2020/12/29 03:55:04;;;;;;;23.88;13.00;;;4.20;99.90;;;;;;5064885;28;20055;-77
2020/12/29 03:57:29;;;;;;;25.13;13.75;;;4.20;99.90;;;;;;5065890;28;20032;-77
2020/12/29 03:59:55;;;;;;;24.33;13.05;;;4.20;99.90;;;;;;5062484;28;20048;-77
2020/12/29 04:02:20;;;;;;;25.48;13.27;;;4.10;99.90;;;;;;5060620;28;20411;-77
2020/12/29 04:04:46;;;;;;;27.65;13.68;;;4.20;99.90;;;;;;5064464;28;20029;-77
2020/12/29 04:07:11;;;;;;;23.95;13.40;;;4.30;99.90;;;;;;5068958;28;20107;-77
2020/12/29 04:09:37;;;;;;;24.27;13.20;;;4.20;99.90;;;;;;5055879;28;20040;-77
2020/12/29 04:12:02;;;;;;;25.40;13.25;;;4.30;99.90;;;;;;5057250;28;20036;-77
2020/12/29 04:14:28;;;;;;;23.73;12.60;;;4.30;99.90;;;;;;5064086;28;20080;-76
2020/12/29 04:16:55;;;;;;;24.85;12.73;;;4.20;99.90;;;;;;5062174;28;20036;-77
2020/12/29 04:19:20;;;;;;;26.77;13.13;;;4.20;99.90;;;;;;5062170;28;20067;-77
2020/12/29 04:21:46;;;;;;;23.50;13.25;;;4.30;99.90;;;;;;5056931;28;20650;-76
2020/12/29 04:24:11;;;;;;;23.60;12.57;;;4.30;99.90;;;;;;5057628;28;20049;-77
2020/12/29 04:26:36;;;;;;;27.85;14.70;;;4.30;99.90;;;;;;5057195;28;20044;-77
2020/12/29 04:29:02;;;;;;;21.92;12.50;;;4.20;99.90;;;;;;5066057;28;20088;-76
2020/12/29 04:31:27;;;;;;;26.88;12.63;;;4.20;99.90;;;;;;5066154;28;20108;-77
2020/12/29 04:33:53;;;;;;;31.27;13.20;;;4.30;99.90;;;;;;5064485;28;20357;-77
2020/12/29 04:36:18;;;;;;;27.27;13.98;;;4.30;99.90;;;;;;5062535;28;20043;-76
2020/12/29 04:38:44;;;;;;;25.88;12.80;;;4.30;99.90;;;;;;5059872;28;20021;-76
2020/12/29 04:41:09;;;;;;;25.88;13.02;;;4.20;99.90;;;;;;5059569;28;20124;-77
2020/12/29 04:43:35;;;;;;;25.95;13.35;;;4.10;99.90;;;;;;5056412;28;20066;-76
2020/12/29 04:46:03;;;;;;;26.92;13.32;;;4.20;99.90;;;;;;5058641;28;20031;-76
2020/12/29 04:48:29;;;;;;;28.15;14.50;;;4.20;99.90;;;;;;5059172;28;20112;-77
2020/12/29 04:51:07;;;;;;;26.13;13.40;;;4.20;99.90;;;;;;5066799;28;20495;-76
2020/12/29 04:53:34;;;;;;;23.90;13.40;;;4.20;99.90;;;;;;5066003;28;20056;-77
2020/12/29 04:56:06;;;;;;;24.38;13.10;;;4.20;99.90;;;;;;5062588;28;20659;-77
2020/12/29 04:58:33;;;;;;;27.85;14.18;;;4.20;99.90;;;;;;5067168;28;20039;-77
2020/12/29 05:01:05;;;;;;;24.55;12.98;;;4.20;99.90;;;;;;5052667;28;20056;-77
2020/12/29 05:03:45;;;;;;;27.65;14.10;;;4.20;99.90;;;;;;5054384;28;20024;-77
2020/12/29 05:06:11;;;;;;;23.58;13.50;;;4.10;99.90;;;;;;5062829;28;20498;-76
2020/12/29 05:08:37;;;;;;;30.23;15.05;;;4.10;99.90;;;;;;5065361;28;20036;-77
2020/12/29 05:11:02;;;;;;;28.38;14.90;;;4.10;99.90;;;;;;5053722;28;20472;-76
2020/12/29 05:13:28;;;;;;;24.88;15.00;;;4.10;99.90;;;;;;5054678;28;20028;-76
2020/12/29 05:15:53;;;;;;;29.20;15.63;;;4.10;99.90;;;;;;5062297;28;20035;-76
2020/12/29 05:18:19;;;;;;;32.58;16.45;;;4.10;99.90;;;;;;5062780;28;20048;-77
2020/12/29 05:20:48;;;;;;;35.13;18.15;;;4.10;99.90;;;;;;5057998;28;20048;-76
2020/12/29 05:23:15;;;;;;;29.85;17.10;;;4.10;99.90;;;;;;5059136;28;20033;-77
2020/12/29 05:25:45;;;;;;;33.63;17.55;;;3.90;99.90;;;;;;5063833;28;20103;-76
2020/12/29 05:28:11;;;;;;;37.03;18.90;;;3.90;99.90;;;;;;5061839;28;20040;-76
2020/12/29 05:30:38;;;;;;;29.63;16.30;;;3.90;99.90;;;;;;5056563;28;20562;-76
2020/12/29 05:33:09;;;;;;;31.85;15.70;;;3.80;99.90;;;;;;5055407;28;20029;-76
2020/12/29 05:35:36;;;;;;;29.73;15.93;;;3.70;99.90;;;;;;5065655;28;20036;-76
2020/12/29 05:38:02;;;;;;;30.23;16.33;;;3.60;99.90;;;;;;5052650;28;20052;-77
2020/12/29 05:40:29;;;;;;;29.10;15.88;;;3.70;99.90;;;;;;5060815;28;20589;-76
2020/12/29 05:42:56;;;;;;;28.73;15.38;;;3.70;99.90;;;;;;5063918;28;20054;-76
2020/12/29 05:45:24;;;;;;;28.05;15.27;;;3.70;99.90;;;;;;5059190;28;20024;-76
2020/12/29 05:47:55;;;;;;;28.38;15.07;;;3.70;99.90;;;;;;5058267;28;20111;-77
2020/12/29 05:50:21;;;;;;;28.42;15.45;;;3.70;99.90;;;;;;5063184;28;20386;-77
2020/12/29 05:52:55;;;;;;;28.42;14.38;;;3.80;99.90;;;;;;5049960;28;20028;-76
2020/12/29 05:55:21;;;;;;;31.15;16.02;;;3.70;99.90;;;;;;5054756;28;20108;-77
2020/12/29 05:58:07;;;;;;;29.50;16.35;;;3.70;99.90;;;;;;5058984;28;20017;-76
2020/12/29 06:00:34;;;;;;;26.83;14.93;;;3.70;99.90;;;;;;5054531;28;20025;-77
2020/12/29 06:03:01;;;;;;;30.30;15.55;;;3.70;99.90;;;;;;5052258;28;20028;-77
2020/12/29 06:05:29;;;;;;;31.70;16.58;;;3.70;99.90;;;;;;5060555;28;20032;-76
2020/12/29 06:07:56;;;;;;;31.42;15.10;;;3.60;99.90;;;;;;5060265;28;20081;-76
2020/12/29 06:10:26;;;;;;;25.50;14.18;;;3.60;99.90;;;;;;5055083;28;20029;-76
2020/12/29 06:12:56;;;;;;;29.88;15.23;;;3.70;99.90;;;;;;5064562;28;20027;-77
2020/12/29 06:15:26;;;;;;;28.45;14.80;;;3.60;99.90;;;;;;5058719;28;20029;-76
2020/12/29 06:18:03;;;;;;;27.73;14.80;;;3.60;99.90;;;;;;5053179;28;20025;-76
2020/12/29 06:20:44;;;;;;;28.13;14.02;;;3.60;99.90;;;;;;5053128;28;20143;-76
2020/12/29 06:23:13;;;;;;;28.02;13.73;;;3.50;99.90;;;;;;5062730;28;20047;-76
2020/12/29 06:25:41;;;;;;;26.27;13.75;;;3.50;99.90;;;;;;5062286;28;20025;-76
2020/12/29 06:28:06;;;;;;;26.50;13.63;;;3.50;99.90;;;;;;5060819;28;20063;-76
2020/12/29 06:30:33;;;;;;;27.58;14.43;;;3.50;99.90;;;;;;5058698;28;20142;-76
2020/12/29 06:33:00;;;;;;;25.85;13.45;;;3.50;99.90;;;;;;5066505;28;20358;-76
2020/12/29 06:35:26;;;;;;;24.42;13.13;;;3.50;99.90;;;;;;5063912;28;20035;-76
2020/12/29 06:37:58;;;;;;;27.63;13.52;;;3.40;99.90;;;;;;5053105;28;20032;-76
2020/12/29 06:40:27;;;;;;;24.52;13.82;;;3.50;99.90;;;;;;5066087;28;20043;-76
2020/12/29 06:42:53;;;;;;;24.20;13.07;;;3.40;99.90;;;;;;5061065;28;20029;-76
2020/12/29 06:45:19;;;;;;;25.35;13.68;;;3.40;99.90;;;;;;5066273;28;20170;-77
2020/12/29 06:47:46;;;;;;;25.70;14.25;;;3.40;99.90;;;;;;5054402;28;20059;-76
2020/12/29 06:50:22;;;;;;;26.40;14.55;;;3.30;99.90;;;;;;5051977;28;20034;-76
2020/12/29 06:52:54;;;;;;;27.20;13.93;;;3.30;99.90;;;;;;5050464;28;20551;-77
2020/12/29 06:55:20;;;;;;;24.42;12.55;;;3.20;99.90;;;;;;5060356;28;20032;-76
2020/12/29 06:57:50;;;;;;;26.83;13.77;;;3.20;99.90;;;;;;5062057;28;20025;-77
2020/12/29 07:00:17;;;;;;;25.33;13.40;;;3.10;99.90;;;;;;5060088;28;20154;-76
2020/12/29 07:02:46;;;;;;;25.33;13.07;;;3.00;99.90;;;;;;5054080;28;20134;-77
2020/12/29 07:05:20;;;;;;;24.92;13.13;;;2.90;99.90;;;;;;5053526;28;20288;-77
2020/12/29 07:07:51;;;;;;;23.92;12.13;;;3.00;99.90;;;;;;5054903;28;20399;-77
2020/12/29 07:10:18;;;;;;;25.33;13.25;;;2.80;99.90;;;;;;5056446;28;20032;-77
2020/12/29 07:12:45;;;;;;;25.85;12.75;;;2.80;99.90;;;;;;5057280;28;20488;-76
2020/12/29 07:15:16;;;;;;;23.77;12.23;;;2.70;99.90;;;;;;5060739;28;20016;-76
2020/12/29 07:17:58;;;;;;;21.67;12.05;;;2.50;99.90;;;;;;5059410;28;20077;-76
2020/12/29 07:20:26;;;;;;;24.95;12.50;;;2.30;99.90;;;;;;5065746;28;20149;-77
2020/12/29 07:23:06;;;;;;;23.40;12.55;;;2.40;99.90;;;;;;5066579;28;20123;-76
2020/12/29 07:25:32;;;;;;;23.92;12.48;;;2.40;99.90;;;;;;5067321;28;20029;-77
2020/12/29 07:28:00;;;;;;;24.48;13.00;;;2.30;99.90;;;;;;5064669;28;20036;-76
2020/12/29 07:30:33;;;;;;;22.63;12.30;;;2.30;99.90;;;;;;5050205;28;20553;-76
2020/12/29 07:33:02;;;;;;;24.00;11.98;;;2.20;99.90;;;;;;5060939;28;20064;-77
2020/12/29 07:35:30;;;;;;;23.92;12.35;;;2.10;99.90;;;;;;5053837;28;20033;-76
2020/12/29 07:37:57;;;;;;;23.55;12.82;;;2.10;99.90;;;;;;5066319;28;20029;-77
2020/12/29 07:40:24;;;;;;;25.52;12.98;;;2.20;99.90;;;;;;5064867;28;20268;-76
2020/12/29 07:42:50;;;;;;;22.85;12.93;;;2.30;99.90;;;;;;5057761;28;20352;-77
2020/12/29 07:45:15;;;;;;;28.02;14.55;;;2.30;99.90;;;;;;5064941;28;20043;-77
2020/12/29 07:47:41;;;;;;;25.67;12.98;;;2.30;99.90;;;;;;5054341;28;20386;-76
2020/12/29 07:50:06;;;;;;;29.45;15.30;;;2.40;99.90;;;;;;5061264;28;20036;-77
2020/12/29 07:52:32;;;;;;;28.05;13.88;;;2.50;99.90;;;;;;5064183;28;21693;-76
2020/12/29 07:55:14;;;;;;;25.88;12.77;;;2.50;99.90;;;;;;5069226;28;20032;-77
2020/12/29 07:57:40;;;;;;;27.20;13.75;;;2.40;99.90;;;;;;5053844;28;20033;-77
2020/12/29 08:00:11;;;;;;;25.02;14.23;;;2.40;99.90;;;;;;5052959;28;20033;-76
2020/12/29 08:02:37;;;;;;;27.90;13.25;;;2.40;99.90;;;;;;5066634;28;20036;-77
2020/12/29 08:05:04;;;;;;;26.27;13.90;;;2.40;99.90;;;;;;5068571;28;20530;-76
2020/12/29 08:07:29;;;;;;;28.30;14.60;;;2.40;99.90;;;;;;5067840;28;20028;-77
2020/12/29 08:09:55;;;;;;;28.38;14.50;;;2.40;99.90;;;;;;5065716;28;20024;-76
2020/12/29 08:12:20;;;;;;;29.85;14.68;;;2.30;99.90;;;;;;5065493;28;20028;-76
2020/12/29 08:14:46;;;;;;;28.27;15.57;;;2.40;99.90;;;;;;5056475;28;20548;-77
2020/12/29 08:17:12;;;;;;;31.48;15.63;;;2.50;99.90;;;;;;5059049;28;20032;-77
2020/12/29 08:19:37;;;;;;;32.42;15.50;;;2.50;99.90;;;;;;5062498;28;20039;-76
2020/12/29 08:22:07;;;;;;;30.45;15.55;;;2.50;99.90;;;;;;5061653;28;20082;-76
2020/12/29 08:24:33;;;;;;;27.30;14.75;;;2.70;99.90;;;;;;5062913;28;20111;-77
2020/12/29 08:26:59;;;;;;;29.30;14.68;;;2.70;99.90;;;;;;5061000;28;20383;-76
2020/12/29 08:29:25;;;;;;;27.73;14.57;;;2.70;99.90;;;;;;5066555;28;20111;-76
2020/12/29 08:32:11;;;;;;;28.92;14.32;;;2.80;99.90;;;;;;5060853;28;20068;-77
2020/12/29 08:34:44;;;;;;;30.52;14.30;;;2.90;99.90;;;;;;5065192;28;20036;-77
2020/12/29 08:37:12;;;;;;;23.20;13.63;;;2.80;99.90;;;;;;5057355;28;20112;-77
2020/12/29 08:39:54;;;;;;;25.83;13.70;;;2.80;99.90;;;;;;5055219;28;20116;-77
2020/12/29 08:42:21;;;;;;;23.20;13.50;;;2.80;99.90;;;;;;5059880;28;21544;-76
2020/12/29 08:44:47;;;;;;;26.52;14.18;;;2.80;99.90;;;;;;5053126;28;20029;-76
2020/12/29 08:47:14;;;;;;;26.10;13.25;;;2.80;99.90;;;;;;5055829;28;20031;-77
2020/12/29 08:49:40;;;;;;;28.10;14.07;;;2.90;99.90;;;;;;5065051;28;20043;-77
2020/12/29 08:52:06;;;;;;;29.75;14.07;;;3.00;99.90;;;;;;5058908;28;20347;-77
2020/12/29 08:54:37;;;;;;;26.35;13.70;;;3.10;99.90;;;;;;5063882;28;20020;-77
2020/12/29 08:57:05;;;;;;;24.50;13.52;;;3.20;99.90;;;;;;5054264;28;20490;-77
2020/12/29 08:59:40;;;;;;;27.42;14.18;;;3.30;99.90;;;;;;5061383;28;20036;-76
2020/12/29 09:02:07;;;;;;;27.40;14.35;;;3.30;99.90;;;;;;5062707;28;20041;-76
2020/12/29 09:04:36;;;;;;;23.45;12.68;;;3.50;99.90;;;;;;5062981;28;20038;-76
2020/12/29 09:07:04;;;;;;;26.90;13.45;;;3.50;99.90;;;;;;5061811;28;20024;-76
2020/12/29 09:09:32;;;;;;;21.95;12.30;;;3.60;99.90;;;;;;5056754;28;20147;-77
2020/12/29 09:12:11;;;;;;;26.40;13.02;;;3.60;99.90;;;;;;5059486;28;20090;-76
2020/12/29 09:14:38;;;;;;;25.30;13.27;;;3.70;99.90;;;;;;5061533;28;20033;-77
2020/12/29 09:17:06;;;;;;;27.95;12.57;;;3.70;99.90;;;;;;5060349;28;20466;-76
2020/12/29 09:19:32;;;;;;;21.70;11.90;;;3.80;99.90;;;;;;5058335;28;20136;-76
2020/12/29 09:22:06;;;;;;;22.75;12.13;;;3.80;99.90;;;;;;5067766;28;20032;-74
2020/12/29 09:24:31;;;;;;;22.70;11.88;;;3.90;99.90;;;;;;5064304;28;20094;-77
2020/12/29 09:26:57;;;;;;;21.70;12.35;;;3.90;99.90;;;;;;5060279;28;20406;-74
2020/12/29 09:29:23;;;;;;;22.05;11.77;;;4.00;99.90;;;;;;5052175;28;20138;-77
2020/12/29 09:31:54;;;;;;;21.85;12.05;;;4.20;99.90;;;;;;5059660;28;20044;-85
2020/12/29 09:34:20;;;;;;;24.50;11.82;;;4.20;99.90;;;;;;5057929;28;20082;-85
2020/12/29 09:36:45;;;;;;;24.92;13.05;;;4.30;99.90;;;;;;5057461;28;20025;-75
2020/12/29 09:39:11;;;;;;;22.45;12.25;;;4.40;99.90;;;;;;5049600;28;20062;-80
2020/12/29 09:41:37;;;;;;;26.20;12.38;;;4.40;99.90;;;;;;5053508;28;20037;-76
2020/12/29 09:44:02;;;;;;;23.63;11.45;;;4.50;99.90;;;;;;5049904;28;20017;-77
2020/12/29 09:46:35;;;;;;;21.30;11.10;;;4.60;99.90;;;;;;5064464;28;20048;-82
2020/12/29 09:49:01;;;;;;;19.77;11.27;;;4.70;99.90;;;;;;5065637;28;20024;-79
2020/12/29 09:54:38;;;;;;;20.23;10.85;;;4.90;99.90;;;;;;5061405;28;20039;-82
2020/12/29 09:57:04;;;;;;;21.92;11.48;;;5.00;99.90;;;;;;5066588;28;20453;-81
2020/12/29 09:59:29;;;;;;;20.70;10.82;;;5.10;99.90;;;;;;5061804;28;20024;-77
2020/12/29 10:01:55;;;;;;;23.27;11.52;;;5.10;99.90;;;;;;5059891;28;20016;-79
2020/12/29 10:04:20;;;;;;;22.10;11.73;;;5.10;99.90;;;;;;5055548;28;20024;-77
2020/12/29 10:06:48;;;;;;;22.00;11.68;;;5.20;99.90;;;;;;5061304;28;20024;-80
2020/12/29 10:09:14;;;;;;;21.65;10.60;;;5.00;99.90;;;;;;5048810;28;20526;-77
2020/12/29 10:11:39;;;;;;;20.98;10.70;;;5.20;99.90;;;;;;5059493;28;20064;-78
2020/12/29 10:14:04;;;;;;;22.23;11.38;;;5.20;99.90;;;;;;5056230;28;20537;-78
2020/12/29 10:16:33;;;;;;;19.70;11.18;;;5.20;99.90;;;;;;5059971;28;20021;-76
2020/12/29 10:18:58;;;;;;;18.50;10.70;;;5.00;99.90;;;;;;5056467;28;20034;-76
2020/12/29 10:21:24;;;;;;;20.60;11.45;;;5.10;99.90;;;;;;5062487;28;20028;-75
2020/12/29 10:23:49;;;;;;;20.58;11.13;;;5.10;99.90;;;;;;5056696;28;20048;-79
2020/12/29 10:26:15;;;;;;;20.83;11.70;;;5.10;99.90;;;;;;5058051;28;20017;-80
2020/12/29 10:28:41;;;;;;;19.90;11.48;;;5.10;99.90;;;;;;5060314;28;20090;-80
2020/12/29 10:31:07;;;;;;;16.95;11.05;;;5.30;99.90;;;;;;5051135;28;20028;-77
2020/12/29 10:33:33;;;;;;;18.83;11.07;;;5.50;99.90;;;;;;5060717;28;20423;-78
2020/12/29 10:35:58;;;;;;;19.55;10.80;;;5.60;99.90;;;;;;5060331;28;20033;-76
2020/12/29 10:38:24;;;;;;;16.25;9.85;;;5.60;99.90;;;;;;5056678;28;20104;-77
2020/12/29 10:40:49;;;;;;;18.02;10.38;;;5.60;99.90;;;;;;5055433;28;20068;-84
2020/12/29 10:43:15;;;;;;;18.85;10.18;;;5.60;99.90;;;;;;5062122;28;20036;-81
2020/12/29 10:45:40;;;;;;;16.83;10.38;;;5.60;99.90;;;;;;5052698;28;20024;-73
2020/12/29 10:48:06;;;;;;;18.05;9.75;;;5.60;99.90;;;;;;5061235;28;20029;-74
2020/12/29 10:50:31;;;;;;;17.35;9.88;;;5.60;99.90;;;;;;5064459;28;20115;-75
2020/12/29 10:52:58;;;;;;;15.00;8.88;;;5.50;99.90;;;;;;5060878;28;20490;-74
2020/12/29 10:55:23;;;;;;;19.10;10.05;;;5.50;99.90;;;;;;5054483;28;20490;-74
2020/12/29 10:57:49;;;;;;;13.18;8.77;;;5.60;99.90;;;;;;5048960;28;20021;-74
2020/12/29 11:00:14;;;;;;;15.27;9.25;;;5.70;99.90;;;;;;5054419;28;20029;-76
2020/12/29 11:02:40;;;;;;;16.52;9.07;;;5.80;99.90;;;;;;5057145;28;20036;-76
2020/12/29 11:05:05;;;;;;;17.58;9.00;;;5.80;99.90;;;;;;5058651;28;20504;-76
2020/12/29 11:07:31;;;;;;;15.88;9.18;;;5.70;99.90;;;;;;5062600;28;20032;-76
2020/12/29 11:09:56;;;;;;;16.33;8.90;;;5.70;99.90;;;;;;5060444;28;20152;-76
2020/12/29 11:12:22;;;;;;;14.57;8.23;;;5.60;99.90;;;;;;5063705;28;20032;-81
2020/12/29 11:14:47;;;;;;;13.25;7.88;;;5.60;99.90;;;;;;5058641;28;20428;-82
2020/12/29 11:17:13;;;;;;;13.73;8.05;;;5.60;99.90;;;;;;5054961;28;20021;-80
2020/12/29 11:19:38;;;;;;;17.35;8.63;;;5.60;99.90;;;;;;5062291;28;20508;-91
2020/12/29 11:22:04;;;;;;;14.45;8.90;;;5.60;99.90;;;;;;5048824;28;20148;-82
2020/12/29 11:24:29;;;;;;;18.23;8.93;;;5.50;99.90;;;;;;5046361;28;20032;-82
2020/12/29 11:26:54;;;;;;;16.05;9.25;;;5.50;99.90;;;;;;5053637;28;20115;-76
2020/12/29 11:29:20;;;;;;;17.10;8.68;;;5.50;99.90;;;;;;5052211;28;20422;-79
2020/12/29 11:31:45;;;;;;;15.10;8.07;;;5.40;99.90;;;;;;5052279;28;20029;-78
2020/12/29 11:34:11;;;;;;;15.73;8.85;;;5.50;99.90;;;;;;5050288;28;20033;-80
2020/12/29 11:36:36;;;;;;;14.93;8.52;;;5.50;99.90;;;;;;5049631;28;20033;-78
2020/12/29 11:39:02;;;;;;;14.38;8.32;;;5.50;99.90;;;;;;5054122;28;20028;-80
2020/12/29 11:41:28;;;;;;;16.10;8.43;;;5.50;99.90;;;;;;5051287;28;20029;-81
2020/12/29 11:43:53;;;;;;;13.80;7.70;;;5.50;99.90;;;;;;5054011;28;20441;-82
2020/12/29 11:46:19;;;;;;;15.82;8.30;;;5.50;99.90;;;;;;5053194;28;20415;-83
2020/12/29 11:48:44;;;;;;;13.18;7.88;;;5.60;99.90;;;;;;5054505;28;20025;-82
2020/12/29 11:51:10;;;;;;;17.25;8.45;;;5.60;99.90;;;;;;5054369;28;20102;-83
2020/12/29 11:53:36;;;;;;;14.57;8.18;;;5.70;99.90;;;;;;5055761;28;20031;-83
2020/12/29 11:56:02;;;;;;;13.60;8.07;;;5.60;99.90;;;;;;5056376;28;20112;-82
2020/12/29 11:58:27;;;;;;;12.70;7.57;;;5.60;99.90;;;;;;5054271;28;20540;-83
2020/12/29 12:00:53;;;;;;;13.30;8.23;;;5.60;99.90;;;;;;5056984;28;21200;-82
2020/12/29 12:03:19;;;;;;;16.73;8.10;;;5.50;99.90;;;;;;5058360;28;20020;-88
2020/12/29 12:05:44;;;;;;;14.52;7.75;;;5.50;99.90;;;;;;5057352;28;20078;-88
2020/12/29 12:08:09;;;;;;;13.13;7.18;;;5.40;99.90;;;;;;5057758;28;20027;-89
2020/12/29 12:10:35;;;;;;;12.88;7.50;;;5.50;99.90;;;;;;5055904;28;20052;-82
2020/12/29 12:13:00;;;;;;;14.55;7.70;;;5.50;99.90;;;;;;5056095;28;20024;-82
2020/12/29 12:15:26;;;;;;;13.10;7.32;;;5.40;99.90;;;;;;5055242;28;20223;-81
2020/12/29 12:17:51;;;;;;;13.43;7.25;;;5.40;99.90;;;;;;5054085;28;20094;-81
2020/12/29 12:20:17;;;;;;;13.60;8.20;;;5.50;99.90;;;;;;5058282;28;20063;-85
2020/12/29 12:22:42;;;;;;;13.88;8.55;;;5.50;99.90;;;;;;5056626;28;20029;-83
2020/12/29 12:25:08;;;;;;;14.02;7.65;;;5.50;99.90;;;;;;5055398;28;20028;-85
2020/12/29 12:27:33;;;;;;;12.88;7.63;;;5.50;99.90;;;;;;5058409;28;20031;-82
2020/12/29 12:29:59;;;;;;;12.35;7.50;;;5.50;99.90;;;;;;5053392;28;20029;-80
2020/12/29 12:32:24;;;;;;;12.48;7.47;;;5.50;99.90;;;;;;5058331;28;20063;-82
2020/12/29 12:34:50;;;;;;;14.13;7.40;;;5.50;99.90;;;;;;5056204;28;20461;-82
2020/12/29 12:37:16;;;;;;;13.57;7.82;;;5.60;99.90;;;;;;5053902;28;20020;-81
2020/12/29 12:39:41;;;;;;;11.68;7.40;;;5.60;99.90;;;;;;5055790;28;20055;-87